createdAt,value
2022-08-21T07:24:07.807Z,98898.81
2022-08-21T07:27:17.496Z,98906.22
2022-08-21T07:30:27.877Z,98900.69
2022-08-21T07:33:38.028Z,98904.72
2022-08-21T07:36:48.041Z,98902.56
2022-08-21T07:40:00.557Z,98902.22
2022-08-21T07:43:10.316Z,98898.53
2022-08-21T07:46:20.355Z,98891.00
2022-08-21T07:49:31.024Z,98883.63
2022-08-21T07:52:41.359Z,98882.00
2022-08-21T07:55:52.389Z,98879.31
2022-08-21T07:59:03.619Z,98879.44
2022-08-21T08:02:24.076Z,98884.88
2022-08-21T08:05:34.046Z,98884.22
2022-08-21T08:08:44.175Z,98873.53
2022-08-21T08:11:55.075Z,98868.09
2022-08-21T08:15:09.667Z,98864.34
2022-08-21T08:18:19.563Z,98858.66
2022-08-21T08:21:29.191Z,98864.31
2022-08-21T08:24:40.720Z,98860.88
2022-08-21T08:27:51.818Z,98854.97
2022-08-21T08:31:02.465Z,98843.56
2022-08-21T08:34:12.077Z,98841.03
2022-08-21T08:37:35.062Z,98834.78
2022-08-21T08:40:53.292Z,98834.25
2022-08-21T08:44:08.228Z,98830.19
2022-08-21T08:47:20.260Z,98826.66
2022-08-21T08:50:40.333Z,98827.59
2022-08-21T08:53:54.736Z,98819.66
2022-08-21T08:57:09.532Z,98821.56
2022-08-21T09:00:24.057Z,98825.06
2022-08-21T09:03:34.904Z,98814.56
2022-08-21T09:06:57.960Z,98825.44
2022-08-21T09:10:18.935Z,98816.31
2022-08-21T09:13:42.049Z,98823.09
2022-08-21T09:17:00.455Z,98820.63
2022-08-21T09:20:19.848Z,98821.06
2022-08-21T09:23:40.395Z,98826.28
2022-08-21T09:26:56.260Z,98823.69
2022-08-21T09:30:09.305Z,98816.56
2022-08-21T09:33:21.789Z,98821.84
2022-08-21T09:36:39.158Z,98816.06
2022-08-21T09:39:49.036Z,98812.44
2022-08-21T09:43:01.062Z,98809.66
2022-08-21T09:46:12.610Z,98799.81
2022-08-21T09:49:31.676Z,98782.88
2022-08-21T09:52:47.832Z,98772.19
2022-08-21T09:56:11.972Z,98779.50
2022-08-21T09:59:29.280Z,98783.09
2022-08-21T10:02:40.488Z,98785.75
2022-08-21T10:05:58.689Z,98779.63
2022-08-21T10:09:13.653Z,98770.66
2022-08-21T10:12:35.203Z,98764.41
2022-08-21T10:15:52.933Z,98769.69
2022-08-21T10:19:14.104Z,98768.75
2022-08-21T10:22:36.584Z,98766.94
2022-08-21T10:25:57.024Z,98776.91
2022-08-21T10:29:40.880Z,98775.97
2022-08-21T10:33:06.045Z,98753.72
2022-08-21T10:36:21.678Z,98763.25
2022-08-21T10:39:36.752Z,98756.09
2022-08-21T10:42:58.609Z,98761.44
2022-08-21T10:46:17.862Z,98745.38
2022-08-21T10:49:40.404Z,98734.56
2022-08-21T10:53:04.541Z,98736.41
2022-08-21T10:56:19.906Z,98733.97
2022-08-21T10:59:38.749Z,98719.59
2022-08-21T11:02:52.704Z,98723.94
2022-08-21T11:06:08.543Z,98724.72
2022-08-21T11:09:20.650Z,98726.31
2022-08-21T11:12:41.273Z,98728.47
2022-08-21T11:15:58.104Z,98724.81
2022-08-21T11:19:12.986Z,98722.81
2022-08-21T11:22:28.643Z,98716.41
2022-08-21T11:25:43.293Z,98722.50
2022-08-21T11:28:58.520Z,98719.28
2022-08-21T11:32:29.577Z,98711.16
2022-08-21T11:35:45.875Z,98715.16
2022-08-21T11:39:02.323Z,98702.28
2022-08-21T11:42:22.554Z,98702.16
2022-08-21T11:45:41.385Z,98695.13
2022-08-21T11:49:04.533Z,98701.63
2022-08-21T11:52:20.195Z,98695.56
2022-08-21T11:55:35.975Z,98696.41
2022-08-21T11:58:49.861Z,98690.94
2022-08-21T12:02:02.711Z,98686.91
2022-08-21T12:05:26.883Z,98685.91
2022-08-21T12:08:39.269Z,98678.53
2022-08-21T12:11:50.428Z,98679.78
2022-08-21T12:15:16.279Z,98688.97
2022-08-21T12:18:32.865Z,98685.53
2022-08-21T12:21:55.412Z,98679.91
2022-08-21T12:25:08.558Z,98674.78
2022-08-21T12:28:24.961Z,98661.38
2022-08-21T12:31:34.611Z,98663.97
2022-08-21T12:34:50.225Z,98664.28
2022-08-21T12:38:09.240Z,98667.59
2022-08-21T12:41:23.463Z,98674.25
2022-08-21T12:44:39.780Z,98671.38
2022-08-21T12:47:57.044Z,98669.88
2022-08-21T12:51:14.064Z,98669.00
2022-08-21T12:54:26.566Z,98659.84
2022-08-21T12:57:39.371Z,98644.84
2022-08-21T13:00:52.165Z,98662.63
2022-08-21T13:04:05.933Z,98655.06
2022-08-21T13:07:23.256Z,98651.09
2022-08-21T13:10:35.141Z,98646.13
2022-08-21T13:13:50.010Z,98644.97
2022-08-21T13:17:04.814Z,98647.72
2022-08-21T13:20:23.553Z,98649.50
2022-08-21T13:23:34.572Z,98639.03
2022-08-21T13:26:44.703Z,98641.72
2022-08-21T13:30:07.688Z,98639.16
2022-08-21T13:33:20.088Z,98629.75
2022-08-21T13:36:34.597Z,98640.88
2022-08-21T13:39:52.813Z,98627.63
2022-08-21T13:43:03.243Z,98628.56
2022-08-21T13:46:15.550Z,98629.69
2022-08-21T13:49:31.019Z,98615.81
2022-08-21T13:52:52.617Z,98617.13
2022-08-21T13:56:05.697Z,98615.00
2022-08-21T13:59:26.761Z,98606.09
2022-08-21T14:02:41.627Z,98607.84
2022-08-21T14:05:51.387Z,98612.75
2022-08-21T14:09:03.767Z,98610.88
2022-08-21T14:12:23.397Z,98607.75
2022-08-21T14:15:35.928Z,98610.88
2022-08-21T14:18:48.186Z,98618.53
2022-08-21T14:21:57.914Z,98611.03
2022-08-21T14:25:11.509Z,98601.16
2022-08-21T14:28:28.083Z,98596.38
2022-08-21T14:31:43.398Z,98596.19
2022-08-21T14:34:54.796Z,98590.84
2022-08-21T14:38:12.845Z,98590.84
2022-08-21T14:41:26.517Z,98578.47
2022-08-21T14:44:37.441Z,98581.31
2022-08-21T14:47:47.128Z,98590.38
2022-08-21T14:51:00.408Z,98586.38
2022-08-21T14:54:10.391Z,98589.44
2022-08-21T14:57:20.045Z,98587.78
2022-08-21T15:00:36.250Z,98576.50
2022-08-21T15:03:46.878Z,98589.91
2022-08-21T15:06:56.703Z,98590.81
2022-08-21T15:10:07.319Z,98593.53
2022-08-21T15:13:19.707Z,98598.91
2022-08-21T15:16:32.005Z,98588.97
2022-08-21T15:19:42.730Z,98581.41
2022-08-21T15:22:52.730Z,98590.47
2022-08-21T15:26:02.776Z,98583.81
2022-08-21T15:29:12.511Z,98581.59
2022-08-21T15:32:27.136Z,98572.41
2022-08-21T15:35:37.578Z,98573.00
2022-08-21T15:38:50.876Z,98571.44
2022-08-21T15:42:02.789Z,98563.75
2022-08-21T15:45:21.197Z,98559.53
2022-08-21T15:48:32.087Z,98558.69
2022-08-21T15:51:43.639Z,98558.28
2022-08-21T15:54:54.029Z,98561.28
2022-08-21T15:58:06.072Z,98564.88
2022-08-21T16:01:15.921Z,98566.81
2022-08-21T16:04:29.110Z,98563.38
2022-08-21T16:07:38.825Z,98564.59
2022-08-21T16:10:48.957Z,98559.44
2022-08-21T16:13:58.718Z,98560.53
2022-08-21T16:17:09.336Z,98562.56
2022-08-21T16:20:22.693Z,98563.63
2022-08-21T16:23:32.320Z,98557.53
2022-08-21T16:26:41.965Z,98560.03
2022-08-21T16:29:53.294Z,98550.16
2022-08-21T16:33:04.949Z,98553.63
2022-08-21T16:36:16.621Z,98552.94
2022-08-21T16:39:26.318Z,98548.72
2022-08-21T16:42:36.854Z,98558.53
2022-08-21T16:45:46.611Z,98551.59
2022-08-21T16:48:56.241Z,98547.22
2022-08-21T16:52:08.490Z,98543.72
2022-08-21T16:55:19.356Z,98548.16
2022-08-21T16:58:33.182Z,98549.00
2022-08-21T17:01:43.410Z,98552.50
2022-08-21T17:04:53.510Z,98546.25
2022-08-21T17:08:04.654Z,98548.81
2022-08-21T17:11:36.690Z,98547.00
2022-08-21T17:14:48.414Z,98551.31
2022-08-21T17:17:58.240Z,98546.84
2022-08-21T17:21:07.958Z,98544.94
2022-08-21T17:24:18.891Z,98550.94
2022-08-21T17:27:29.102Z,98547.28
2022-08-21T17:30:42.785Z,98550.69
2022-08-21T17:33:54.741Z,98547.03
2022-08-21T17:37:07.205Z,98551.31
2022-08-21T17:40:18.267Z,98548.63
2022-08-21T17:43:28.176Z,98538.00
2022-08-21T17:46:39.665Z,98547.53
2022-08-21T17:49:49.247Z,98545.69
2022-08-21T17:52:59.133Z,98544.66
2022-08-21T17:56:10.466Z,98547.16
2022-08-21T17:59:21.361Z,98559.09
2022-08-21T18:02:31.695Z,98563.13
2022-08-21T18:05:41.652Z,98563.00
2022-08-21T18:08:52.239Z,98563.66
2022-08-21T18:12:03.500Z,98571.38
2022-08-21T18:15:16.609Z,98562.25
2022-08-21T18:18:27.939Z,98571.56
2022-08-21T18:21:37.646Z,98578.19
2022-08-21T18:24:47.310Z,98584.03
2022-08-21T18:27:58.419Z,98584.66
2022-08-21T18:31:09.227Z,98593.00
2022-08-21T18:34:26.531Z,98587.28
2022-08-21T18:37:36.701Z,98589.66
2022-08-21T18:40:55.728Z,98590.22
2022-08-21T18:44:07.145Z,98600.47
2022-08-21T18:47:22.141Z,98601.88
2022-08-21T18:50:31.753Z,98603.28
2022-08-21T18:53:41.387Z,98596.91
2022-08-21T18:56:54.688Z,98599.28
2022-08-21T19:00:10.466Z,98608.66
2022-08-21T19:03:23.771Z,98614.41
2022-08-21T19:06:36.117Z,98623.28
2022-08-21T19:10:07.539Z,98619.34
2022-08-21T19:13:20.042Z,98618.16
2022-08-21T19:16:31.235Z,98618.56
2022-08-21T19:19:41.143Z,98621.06
2022-08-21T19:22:53.705Z,98621.59
2022-08-21T19:26:08.536Z,98629.84
2022-08-21T19:29:20.818Z,98625.56
2022-08-21T19:32:50.738Z,98629.50
2022-08-21T19:36:01.484Z,98626.00
2022-08-21T19:39:11.910Z,98625.13
2022-08-21T19:42:22.414Z,98626.06
2022-08-21T19:45:38.995Z,98634.44
2022-08-21T19:48:51.319Z,98633.47
2022-08-21T19:52:01.428Z,98625.50
2022-08-21T19:55:11.548Z,98636.50
2022-08-21T19:58:29.405Z,98636.16
2022-08-21T20:01:40.382Z,98645.31
2022-08-21T20:04:53.867Z,98636.31
2022-08-21T20:08:05.030Z,98643.13
2022-08-21T20:11:16.310Z,98647.13
2022-08-21T20:14:30.481Z,98645.94
2022-08-21T20:17:42.607Z,98649.72
2022-08-21T20:20:54.413Z,98650.25
